Station Historical Data
Daily Summary for March 17, 2012 Units:  Metric    English   Both
« Previous Day
Next Day »
Daily Weekly Monthly Yearly Custom
  High: Low: Average:
Temperature: 26.6 °C 14.8 °C 20.8 °C
Dew Point: 18.6 °C 13.8 °C 15.6 °C
Humidity: 95% 53% 73%
Wind Speed: 16.1km/h 0km/h 4km/h
Wind Gust: 24.1km/h - -
Wind- - SSE
Pressure: 1021.6 hPa 1017.5 hPa -
Precipitation: 0 mm    
Historical Graphs
 
 
Tabular Data for March 17, 2012
Time Temperature Dew Point Pressure Wind Wind Speed Wind Gust Humidity Rainfall Rate (Hourly) Conditions
00:00 17.9 °C 14.1 °C 1019.5 hPa East 3.2 km/h 3.2 km/h 78% 0 mm
00:01 18 °C 14.1 °C 1019.5 hPa East 3.2 km/h 3.2 km/h 78% 0 mm
00:06 18.2 °C 14.1 °C 1019.5 hPa East 3.2 km/h 4.8 km/h 77% 0 mm
00:11 18.3 °C 14.2 °C 1019.5 hPa East 3.2 km/h 3.2 km/h 77% 0 mm
00:16 18.3 °C 14.2 °C 1019.5 hPa East 3.2 km/h 3.2 km/h 77% 0 mm
00:22 18.4 °C 14.3 °C 1019.5 hPa East 3.2 km/h 3.2 km/h 77% 0 mm
00:27 18.4 °C 14.3 °C 1019.5 hPa ESE 3.2 km/h 3.2 km/h 77% 0 mm
00:32 18.3 °C 14.2 °C 1019.5 hPa ESE 3.2 km/h 4.8 km/h 77% 0 mm
00:37 18.2 °C 14.1 °C 1019.5 hPa ESE 4.8 km/h 4.8 km/h 77% 0 mm
00:42 18.3 °C 14.2 °C 1019.5 hPa ESE 3.2 km/h 6.4 km/h 77% 0 mm
00:47 18.4 °C 14.3 °C 1019.5 hPa ESE 4.8 km/h 4.8 km/h 77% 0 mm
00:52 18.4 °C 14.3 °C 1019.5 hPa SE 4.8 km/h 4.8 km/h 77% 0 mm
00:57 18.5 °C 14.2 °C 1019.5 hPa ESE 4.8 km/h 4.8 km/h 76% 0 mm
01:02 18.6 °C 14.3 °C 1019.5 hPa ESE 3.2 km/h 6.4 km/h 76% 0 mm
01:07 18.2 °C 14.3 °C 1019.5 hPa ESE 1.6 km/h 1.6 km/h 78% 0 mm
01:12 17.8 °C 14.2 °C 1019.2 hPa Calm   1.6 km/h 79% 0 mm
01:17 17.6 °C 14.1 °C 1019.5 hPa Calm   1.6 km/h 80% 0 mm
01:22 17.4 °C 13.9 °C 1019.2 hPa ESE 1.6 km/h 3.2 km/h 80% 0 mm
01:27 17.8 °C 14.1 °C 1019.2 hPa ESE 4.8 km/h 4.8 km/h 79% 0 mm
01:32 18.2 °C 14.1 °C 1019.5 hPa SE 4.8 km/h 6.4 km/h 77% 0 mm
01:37 18.4 °C 14.1 °C 1019.5 hPa ESE 4.8 km/h 6.4 km/h 76% 0 mm
01:42 18.4 °C 14.1 °C 1019.5 hPa SE 6.4 km/h 6.4 km/h 76% 0 mm
01:47 18.3 °C 14.1 °C 1019.5 hPa ESE 4.8 km/h 6.4 km/h 76% 0 mm
01:52 18.2 °C 14.1 °C 1019.5 hPa ESE 3.2 km/h 4.8 km/h 77% 0 mm
01:57 17.9 °C 14.1 °C 1019.5 hPa ESE 3.2 km/h 3.2 km/h 78% 0 mm
02:02 17.9 °C 14 °C 1019.2 hPa East 3.2 km/h 4.8 km/h 78% 0 mm
02:07 17.8 °C 14.1 °C 1019.2 hPa East 3.2 km/h 3.2 km/h 79% 0 mm
02:12 17.8 °C 14.2 °C 1019.2 hPa East 3.2 km/h 4.8 km/h 79% 0 mm
02:17 17.8 °C 14.2 °C 1019.2 hPa East 1.6 km/h 3.2 km/h 79% 0 mm
02:22 17.8 °C 14.2 °C 1019.2 hPa East 3.2 km/h 3.2 km/h 79% 0 mm
02:27 17.8 °C 14.3 °C 1019.2 hPa East 3.2 km/h 4.8 km/h 80% 0 mm
02:32 17.7 °C 14.2 °C 1019.2 hPa East 3.2 km/h 3.2 km/h 80% 0 mm
02:37 17.7 °C 14.4 °C 1019.2 hPa East 3.2 km/h 3.2 km/h 81% 0 mm
02:42 17.6 °C 14.3 °C 1019.2 hPa East 3.2 km/h 3.2 km/h 81% 0 mm
02:47 17.6 °C 14.5 °C 1019.2 hPa East 3.2 km/h 3.2 km/h 82% 0 mm
02:52 17.6 °C 14.4 °C 1019.2 hPa East 3.2 km/h 3.2 km/h 82% 0 mm
02:57 17.5 °C 14.4 °C 1019.2 hPa East 3.2 km/h 4.8 km/h 82% 0 mm
03:02 17.4 °C 14.5 °C 1019.2 hPa East 3.2 km/h 3.2 km/h 83% 0 mm
03:07 17.2 °C 14.3 °C 1019.2 hPa East 3.2 km/h 3.2 km/h 83% 0 mm
03:13 16.9 °C 14.2 °C 1019.2 hPa Calm   1.6 km/h 84% 0 mm
03:18 16.7 °C 14.2 °C 1019.2 hPa East 1.6 km/h 1.6 km/h 85% 0 mm
03:23 16.7 °C 14.3 °C 1019.2 hPa East 1.6 km/h 3.2 km/h 86% 0 mm
03:28 16.5 °C 14 °C 1019.2 hPa Calm   1.6 km/h 85% 0 mm
03:33 16.3 °C 13.9 °C 1019.2 hPa Calm     86% 0 mm
03:38 16.1 °C 13.9 °C 1019.2 hPa Calm     87% 0 mm
03:43 15.9 °C 13.9 °C 1019.2 hPa Calm     88% 0 mm
03:48 16.2 °C 14.3 °C 1019.2 hPa Calm   1.6 km/h 89% 0 mm
03:53 16.3 °C 14.3 °C 1019.2 hPa Calm   1.6 km/h 88% 0 mm
03:58 16.4 °C 14.4 °C 1019.2 hPa Calm   1.6 km/h 88% 0 mm
04:03 16.5 °C 14.5 °C 1019.2 hPa Calm   1.6 km/h 88% 0 mm
04:08 16.6 °C 14.6 °C 1018.8 hPa SSE 1.6 km/h 1.6 km/h 88% 0 mm
04:13 16.8 °C 14.8 °C 1018.8 hPa Calm   1.6 km/h 88% 0 mm
04:18 16.8 °C 14.8 °C 1018.8 hPa SSE 1.6 km/h 1.6 km/h 88% 0 mm
04:23 16.8 °C 14.8 °C 1018.8 hPa Calm   1.6 km/h 88% 0 mm
04:28 16.8 °C 14.8 °C 1018.8 hPa Calm   1.6 km/h 88% 0 mm
04:33 16.8 °C 14.8 °C 1018.8 hPa Calm   1.6 km/h 88% 0 mm
04:38 16.7 °C 14.7 °C 1018.8 hPa Calm   1.6 km/h 88% 0 mm
04:43 16.6 °C 14.8 °C 1018.8 hPa Calm   1.6 km/h 89% 0 mm
04:48 16.4 °C 14.6 °C 1018.8 hPa Calm     89% 0 mm
04:53 16.3 °C 14.5 °C 1018.8 hPa Calm   1.6 km/h 89% 0 mm
04:58 16.2 °C 14.6 °C 1018.8 hPa Calm     90% 0 mm
05:03 16.1 °C 14.4 °C 1019.2 hPa Calm     90% 0 mm
05:08 16.1 °C 14.6 °C 1019.2 hPa Calm   1.6 km/h 91% 0 mm
05:13 16.1 °C 14.7 °C 1018.8 hPa Calm   1.6 km/h 91% 0 mm
05:19 16 °C 14.6 °C 1019.2 hPa SE 1.6 km/h 1.6 km/h 91% 0 mm
05:24 16.1 °C 14.6 °C 1019.2 hPa Calm   1.6 km/h 91% 0 mm
05:29 16.1 °C 14.6 °C 1019.2 hPa Calm     91% 0 mm
05:34 16 °C 14.7 °C 1019.2 hPa ESE 1.6 km/h 1.6 km/h 92% 0 mm
05:39 15.8 °C 14.4 °C 1019.2 hPa East 3.2 km/h 3.2 km/h 91% 0 mm
05:44 15.8 °C 14.6 °C 1019.2 hPa East 3.2 km/h 3.2 km/h 92% 0 mm
05:49 15.8 °C 14.5 °C 1019.2 hPa ESE 1.6 km/h 3.2 km/h 92% 0 mm
05:54 15.7 °C 14.4 °C 1019.2 hPa Calm   3.2 km/h 92% 0 mm
05:59 15.5 °C 14.2 °C 1019.2 hPa East 3.2 km/h 3.2 km/h 92% 0 mm
06:04 15.4 °C 14.2 °C 1019.2 hPa East 1.6 km/h 1.6 km/h 92% 0 mm
06:09 15.4 °C 14.3 °C 1019.2 hPa East 1.6 km/h 1.6 km/h 93% 0 mm
06:14 15.4 °C 14.3 °C 1019.5 hPa East 1.6 km/h 3.2 km/h 93% 0 mm
06:19 15.5 °C 14.4 °C 1019.5 hPa East 1.6 km/h 3.2 km/h 93% 0 mm
06:24 15.5 °C 14.4 °C 1019.5 hPa ESE 3.2 km/h 3.2 km/h 93% 0 mm
06:29 15.5 °C 14.4 °C 1019.5 hPa East 1.6 km/h 3.2 km/h 93% 0 mm
06:34 15.3 °C 14.2 °C 1019.5 hPa East 1.6 km/h 3.2 km/h 93% 0 mm
06:39 15.2 °C 14.1 °C 1019.5 hPa East 3.2 km/h 4.8 km/h 93% 0 mm
06:44 15.1 °C 13.9 °C 1019.9 hPa Calm   1.6 km/h 93% 0 mm
06:49 15 °C 14.1 °C 1019.9 hPa ESE 1.6 km/h 1.6 km/h 94% 0 mm
06:54 15 °C 14.1 °C 1019.9 hPa ESE 1.6 km/h 3.2 km/h 94% 0 mm
06:59 14.9 °C 14 °C 1019.9 hPa ESE 3.2 km/h 3.2 km/h 94% 0 mm
07:04 15 °C 14.1 °C 1019.9 hPa ESE 1.6 km/h 3.2 km/h 94% 0 mm
07:09 14.9 °C 14 °C 1020.2 hPa Calm   1.6 km/h 94% 0 mm
07:14 14.8 °C 13.8 °C 1020.2 hPa ESE 1.6 km/h 1.6 km/h 94% 0 mm
07:19 14.9 °C 14 °C 1020.2 hPa ESE 3.2 km/h 3.2 km/h 94% 0 mm
07:24 15.1 °C 14.1 °C 1020.2 hPa SE 4.8 km/h 4.8 km/h 94% 0 mm
07:29 15.2 °C 14.4 °C 1020.2 hPa ESE 3.2 km/h 4.8 km/h 95% 0 mm
07:34 15.3 °C 14.4 °C 1020.2 hPa SE 4.8 km/h 4.8 km/h 94% 0 mm
07:39 15.3 °C 14.4 °C 1020.2 hPa ESE 3.2 km/h 4.8 km/h 94% 0 mm
07:44 15.3 °C 14.4 °C 1020.5 hPa SE 3.2 km/h 4.8 km/h 94% 0 mm
07:49 15.3 °C 14.4 °C 1020.5 hPa ESE 3.2 km/h 4.8 km/h 94% 0 mm
07:54 15.3 °C 14.4 °C 1020.5 hPa ESE 3.2 km/h 3.2 km/h 94% 0 mm
07:59 15.3 °C 14.3 °C 1020.5 hPa ESE 3.2 km/h 3.2 km/h 94% 0 mm
08:04 15.2 °C 14.2 °C 1020.5 hPa ESE 3.2 km/h 3.2 km/h 94% 0 mm
08:09 15.3 °C 14.4 °C 1020.5 hPa ESE 1.6 km/h 3.2 km/h 94% 0 mm
08:14 15.3 °C 14.3 °C 1020.5 hPa ESE 1.6 km/h 1.6 km/h 94% 0 mm
08:19 15.4 °C 14.4 °C 1020.5 hPa Calm   1.6 km/h 94% 0 mm
08:24 15.4 °C 14.5 °C 1020.9 hPa Calm   1.6 km/h 94% 0 mm
08:29 15.6 °C 14.7 °C 1020.9 hPa Calm   1.6 km/h 94% 0 mm
08:35 15.8 °C 14.8 °C 1020.9 hPa East 1.6 km/h 3.2 km/h 94% 0 mm
08:40 16 °C 15.1 °C 1020.9 hPa East 3.2 km/h 3.2 km/h 94% 0 mm
08:45 16.1 °C 15.2 °C 1020.9 hPa ESE 3.2 km/h 3.2 km/h 94% 0 mm
08:50 16.2 °C 15.3 °C 1020.9 hPa East 1.6 km/h 1.6 km/h 94% 0 mm
08:55 16.5 °C 15.6 °C 1020.9 hPa ESE 1.6 km/h 1.6 km/h 94% 0 mm
09:00 16.7 °C 15.6 °C 1020.9 hPa ESE 1.6 km/h 3.2 km/h 93% 0 mm
09:05 16.9 °C 15.7 °C 1020.9 hPa ESE 1.6 km/h 3.2 km/h 93% 0 mm
09:10 17.2 °C 16 °C 1020.9 hPa ESE 3.2 km/h 3.2 km/h 93% 0 mm
09:15 17.4 °C 16.1 °C 1020.9 hPa ESE 6.4 km/h 6.4 km/h 92% 0 mm
09:20 17.6 °C 16.3 °C 1021.2 hPa ESE 6.4 km/h 6.4 km/h 92% 0 mm
09:25 17.9 °C 16.4 °C 1021.2 hPa ESE 4.8 km/h 4.8 km/h 91% 0 mm
09:30 18.2 °C 16.7 °C 1021.2 hPa ESE 3.2 km/h 4.8 km/h 91% 0 mm
09:35 18.3 °C 16.6 °C 1021.2 hPa ESE 4.8 km/h 4.8 km/h 90% 0 mm
09:40 18.2 °C 16.5 °C 1021.2 hPa ESE 3.2 km/h 3.2 km/h 90% 0 mm
09:45 18.2 °C 16.6 °C 1021.2 hPa East 3.2 km/h 3.2 km/h 90% 0 mm
09:50 18.4 °C 16.9 °C 1021.2 hPa ESE 3.2 km/h 3.2 km/h 91% 0 mm
09:55 18.7 °C 17 °C 1021.2 hPa Calm   3.2 km/h 90% 0 mm
10:00 18.9 °C 17.3 °C 1021.2 hPa ESE 1.6 km/h 3.2 km/h 90% 0 mm
10:06 19.2 °C 17.4 °C 1021.2 hPa ESE 1.6 km/h 3.2 km/h 89% 0 mm
10:11 19.6 °C 17.2 °C 1021.2 hPa SE 1.6 km/h 4.8 km/h 86% 0 mm
10:16 20.1 °C 17.4 °C 1021.6 hPa SW 1.6 km/h 3.2 km/h 85% 0 mm
10:21 20.6 °C 17.8 °C 1021.6 hPa SSE 3.2 km/h 4.8 km/h 84% 0 mm
10:26 20.9 °C 17.8 °C 1021.6 hPa SE 3.2 km/h 4.8 km/h 82% 0 mm
10:31 21.5 °C 17.7 °C 1021.6 hPa SSE 3.2 km/h 3.2 km/h 79% 0 mm
10:36 21.8 °C 18.1 °C 1021.6 hPa SW 1.6 km/h 3.2 km/h 79% 0 mm
10:41 22.1 °C 17.3 °C 1021.6 hPa WSW 4.8 km/h 6.4 km/h 74% 0 mm
10:46 22.3 °C 17.7 °C 1021.6 hPa SSW 4.8 km/h 6.4 km/h 75% 0 mm
10:51 22.4 °C 17.8 °C 1021.6 hPa SW 4.8 km/h 6.4 km/h 75% 0 mm
10:56 22.6 °C 17.7 °C 1021.6 hPa SW 4.8 km/h 8 km/h 74% 0 mm
11:01 22.8 °C 17.5 °C 1021.6 hPa SW 9.7 km/h 9.7 km/h 72% 0 mm
11:06 23 °C 17.7 °C 1021.6 hPa WSW 9.7 km/h 11.3 km/h 72% 0 mm
11:11 23.2 °C 17.4 °C 1021.6 hPa WSW 3.2 km/h 6.4 km/h 70% 0 mm
11:16 23.4 °C 17.4 °C 1021.6 hPa SSW 6.4 km/h 9.7 km/h 69% 0 mm
11:21 23.6 °C 17.6 °C 1021.6 hPa WSW 4.8 km/h 9.7 km/h 69% 0 mm
11:26 23.7 °C 17.5 °C 1021.6 hPa WSW 4.8 km/h 11.3 km/h 68% 0 mm
11:31 23.7 °C 16.9 °C 1021.6 hPa West 8 km/h 14.5 km/h 66% 0 mm
11:36 23.7 °C 17 °C 1021.6 hPa WSW 11.3 km/h 16.1 km/h 66% 0 mm
11:41 23.8 °C 17.1 °C 1021.6 hPa SSW 4.8 km/h 16.1 km/h 66% 0 mm
11:46 23.6 °C 16.9 °C 1021.6 hPa SW 6.4 km/h 17.7 km/h 66% 0 mm
11:52 23.8 °C 17.3 °C 1021.6 hPa SW 11.3 km/h 11.3 km/h 67% 0 mm
11:57 23.8 °C 17.1 °C 1021.6 hPa West 9.7 km/h 16.1 km/h 66% 0 mm
12:02 23.9 °C 17.9 °C 1021.6 hPa SSW 6.4 km/h 17.7 km/h 69% 0 mm
12:07 24.2 °C 18.1 °C 1021.6 hPa SE 6.4 km/h 11.3 km/h 69% 0 mm
12:12 24.2 °C 17.5 °C 1021.6 hPa SW 6.4 km/h 11.3 km/h 66% 0 mm
12:17 24.3 °C 18 °C 1021.6 hPa South 9.7 km/h 14.5 km/h 68% 0 mm
12:22 24.6 °C 18.6 °C 1021.6 hPa SW 11.3 km/h 11.3 km/h 69% 0 mm
12:27 24.6 °C 17.6 °C 1021.2 hPa SSW 8 km/h 14.5 km/h 65% 0 mm
12:32 24.8 °C 17.8 °C 1021.2 hPa SSE 14.5 km/h 14.5 km/h 65% 0 mm
12:37 24.8 °C 18 °C 1021.2 hPa WSW 11.3 km/h 14.5 km/h 66% 0 mm
12:42 24.7 °C 17.4 °C 1021.2 hPa South 8 km/h 14.5 km/h 64% 0 mm
12:47 24.8 °C 17.8 °C 1021.2 hPa SSE 9.7 km/h 11.3 km/h 65% 0 mm
12:52 24.9 °C 18.2 °C 1021.2 hPa SE 9.7 km/h 16.1 km/h 66% 0 mm
12:57 25.1 °C 17.8 °C 1020.9 hPa SSE 11.3 km/h 17.7 km/h 64% 0 mm
13:02 25.2 °C 17.9 °C 1021.2 hPa SSW 6.4 km/h 14.5 km/h 64% 0 mm
13:07 25.2 °C 17.9 °C 1020.9 hPa SW 8 km/h 16.1 km/h 64% 0 mm
13:12 24.9 °C 17.4 °C 1020.9 hPa SW 11.3 km/h 14.5 km/h 63% 0 mm
13:17 24.9 °C 17.6 °C 1020.9 hPa WSW 11.3 km/h 12.9 km/h 64% 0 mm
13:22 25.2 °C 18.1 °C 1020.9 hPa SSE 11.3 km/h 14.5 km/h 65% 0 mm
13:27 25.4 °C 18.4 °C 1020.9 hPa SSE 16.1 km/h 16.1 km/h 65% 0 mm
13:32 25.3 °C 17.8 °C 1020.5 hPa SW 11.3 km/h 12.9 km/h 63% 0 mm
13:37 25.6 °C 18 °C 1020.5 hPa SSE 9.7 km/h 20.9 km/h 63% 0 mm
13:42 25.6 °C 17.6 °C 1020.5 hPa SSW 12.9 km/h 19.3 km/h 61% 0 mm
13:47 25.8 °C 18.3 °C 1020.5 hPa South 14.5 km/h 22.5 km/h 63% 0 mm
13:52 25.7 °C 17.8 °C 1020.2 hPa SSE 9.7 km/h 16.1 km/h 62% 0 mm
13:57 25.3 °C 17.8 °C 1020.2 hPa SSE 8 km/h 14.5 km/h 63% 0 mm
14:02 25.2 °C 17.4 °C 1019.9 hPa WSW 6.4 km/h 12.9 km/h 62% 0 mm
14:07 25.3 °C 17.5 °C 1019.9 hPa SSW 8 km/h 16.1 km/h 62% 0 mm
14:12 25.3 °C 17.7 °C 1019.9 hPa SW 14.5 km/h 14.5 km/h 63% 0 mm
14:18 25.6 °C 18 °C 1019.5 hPa SSW 8 km/h 12.9 km/h 63% 0 mm
14:23 25.9 °C 17.6 °C 1019.5 hPa South 9.7 km/h 14.5 km/h 60% 0 mm
14:28 25.7 °C 16.8 °C 1019.5 hPa SSW 14.5 km/h 17.7 km/h 58% 0 mm
14:33 25.9 °C 17.3 °C 1019.5 hPa South 14.5 km/h 24.1 km/h 59% 0 mm
14:38 25.9 °C 17.6 °C 1019.5 hPa South 14.5 km/h 19.3 km/h 60% 0 mm
14:43 25.9 °C 17.3 °C 1019.2 hPa SSE 8 km/h 11.3 km/h 59% 0 mm
14:48 26.1 °C 17.2 °C 1019.2 hPa SW 6.4 km/h 14.5 km/h 58% 0 mm
14:53 26.3 °C 17.4 °C 1018.8 hPa SW 9.7 km/h 17.7 km/h 58% 0 mm
14:58 26.1 °C 17.5 °C 1018.8 hPa SSW 9.7 km/h 11.3 km/h 59% 0 mm
15:03 26.4 °C 17.7 °C 1018.8 hPa SSE 11.3 km/h 16.1 km/h 59% 0 mm
15:08 26.6 °C 17.3 °C 1018.5 hPa SW 3.2 km/h 16.1 km/h 57% 0 mm
15:13 26.4 °C 17.2 °C 1018.5 hPa South 8 km/h 24.1 km/h 57% 0 mm
15:18 26.2 °C 16.5 °C 1018.8 hPa South 12.9 km/h 17.7 km/h 55% 0 mm
15:23 26 °C 16.6 °C 1018.5 hPa SSW 11.3 km/h 17.7 km/h 56% 0 mm
15:28 26.1 °C 16.9 °C 1018.5 hPa SSE 12.9 km/h 24.1 km/h 57% 0 mm
15:33 26.3 °C 16.2 °C 1018.5 hPa South 8 km/h 17.7 km/h 54% 0 mm
15:38 26.3 °C 16.8 °C 1018.5 hPa SE 14.5 km/h 19.3 km/h 56% 0 mm
15:43 26.3 °C 16.6 °C 1018.2 hPa South 14.5 km/h 19.3 km/h 55% 0 mm
15:48 26.2 °C 16.5 °C 1018.2 hPa SSW 11.3 km/h 19.3 km/h 55% 0 mm
15:53 26.1 °C 16.3 °C 1018.2 hPa SSE 4.8 km/h 16.1 km/h 55% 0 mm
15:58 26.1 °C 16.1 °C 1018.2 hPa South 12.9 km/h 16.1 km/h 54% 0 mm
16:03 26.1 °C 16.1 °C 1018.2 hPa SE 9.7 km/h 11.3 km/h 54% 0 mm
16:08 25.9 °C 15.9 °C 1018.2 hPa South 9.7 km/h 14.5 km/h 54% 0 mm
16:13 25.6 °C 15.3 °C 1018.2 hPa SW 8 km/h 19.3 km/h 53% 0 mm
16:18 25.6 °C 15.8 °C 1017.8 hPa SE 4.8 km/h 14.5 km/h 55% 0 mm
16:23 25.6 °C 16.1 °C 1017.8 hPa South 4.8 km/h 12.9 km/h 56% 0 mm
16:28 25.6 °C 16.7 °C 1017.8 hPa South 9.7 km/h 12.9 km/h 58% 0 mm
16:34 25.6 °C 16.4 °C 1017.8 hPa SE 9.7 km/h 14.5 km/h 57% 0 mm
16:39 25.6 °C 16.4 °C 1017.8 hPa SSE 6.4 km/h 9.7 km/h 57% 0 mm
16:44 25.6 °C 16.7 °C 1017.8 hPa South 8 km/h 11.3 km/h 58% 0 mm
16:49 25.7 °C 16.8 °C 1017.8 hPa South 6.4 km/h 9.7 km/h 58% 0 mm
16:54 25.7 °C 16.8 °C 1017.8 hPa SSW 4.8 km/h 12.9 km/h 58% 0 mm
16:59 25.8 °C 16.9 °C 1017.8 hPa SSW 8 km/h 11.3 km/h 58% 0 mm
17:04 25.9 °C 17.3 °C 1017.8 hPa SSW 4.8 km/h 11.3 km/h 59% 0 mm
17:09 25.8 °C 16.6 °C 1017.8 hPa SSE 8 km/h 11.3 km/h 57% 0 mm
17:14 25.6 °C 17 °C 1017.8 hPa SSE 6.4 km/h 9.7 km/h 59% 0 mm
17:19 25.5 °C 16.7 °C 1017.8 hPa South 6.4 km/h 6.4 km/h 58% 0 mm
17:24 25.5 °C 16.7 °C 1017.8 hPa SSW 4.8 km/h 9.7 km/h 58% 0 mm
17:29 25.4 °C 16.3 °C 1017.5 hPa SSE 3.2 km/h 6.4 km/h 57% 0 mm
17:34 25.4 °C 16.3 °C 1017.8 hPa SSE 9.7 km/h 9.7 km/h 57% 0 mm
17:39 25.4 °C 16.3 °C 1017.5 hPa South 3.2 km/h 6.4 km/h 57% 0 mm
17:44 25.3 °C 16.2 °C 1017.5 hPa SSW 3.2 km/h 8 km/h 57% 0 mm
17:49 25.2 °C 16.3 °C 1017.5 hPa SSW 4.8 km/h 6.4 km/h 58% 0 mm
17:54 25.1 °C 16 °C 1017.5 hPa WSW 3.2 km/h 6.4 km/h 57% 0 mm
17:59 25.1 °C 16.6 °C 1017.5 hPa WSW 1.6 km/h 4.8 km/h 59% 0 mm
18:04 25.1 °C 15.7 °C 1017.5 hPa WSW 4.8 km/h 6.4 km/h 56% 0 mm
18:09 25.2 °C 15.5 °C 1017.5 hPa WSW 4.8 km/h 8 km/h 55% 0 mm
18:14 25.1 °C 15.4 °C 1017.5 hPa WSW 3.2 km/h 8 km/h 55% 0 mm
18:19 25 °C 15.6 °C 1017.5 hPa SW 3.2 km/h 4.8 km/h 56% 0 mm
18:24 24.9 °C 15.8 °C 1017.5 hPa WSW 6.4 km/h 6.4 km/h 57% 0 mm
18:29 24.8 °C 15.4 °C 1017.5 hPa SW 3.2 km/h 4.8 km/h 56% 0 mm
18:34 24.7 °C 15.4 °C 1017.5 hPa WSW 4.8 km/h 6.4 km/h 56% 0 mm
18:39 24.7 °C 15.1 °C 1017.5 hPa WSW 1.6 km/h 6.4 km/h 55% 0 mm
18:44 24.6 °C 15 °C 1017.8 hPa SW 3.2 km/h 4.8 km/h 55% 0 mm
18:49 24.6 °C 14.9 °C 1017.8 hPa WSW 3.2 km/h 4.8 km/h 55% 0 mm
18:54 24.4 °C 14.8 °C 1017.8 hPa WSW 1.6 km/h 3.2 km/h 55% 0 mm
18:59 24.3 °C 14.7 °C 1017.8 hPa SW 1.6 km/h 1.6 km/h 55% 0 mm
19:04 24.3 °C 14.9 °C 1017.8 hPa Calm   1.6 km/h 56% 0 mm
19:09 24.1 °C 14.5 °C 1017.8 hPa WSW 1.6 km/h 1.6 km/h 55% 0 mm
19:14 24.1 °C 14.5 °C 1017.8 hPa Calm   1.6 km/h 55% 0 mm
19:19 23.9 °C 14.6 °C 1017.8 hPa Calm     56% 0 mm
19:24 23.8 °C 14.5 °C 1017.8 hPa Calm     56% 0 mm
19:29 23.6 °C 14.6 °C 1017.8 hPa WSW 1.6 km/h 1.6 km/h 57% 0 mm
19:34 23.6 °C 14.8 °C 1017.8 hPa SE 1.6 km/h 1.6 km/h 58% 0 mm
19:39 23.4 °C 15.2 °C 1017.8 hPa SE 1.6 km/h 3.2 km/h 60% 0 mm
19:44 23.2 °C 15.5 °C 1018.2 hPa Calm   1.6 km/h 62% 0 mm
19:49 22.8 °C 15.4 °C 1018.2 hPa SE 3.2 km/h 3.2 km/h 63% 0 mm
19:54 22.6 °C 15.2 °C 1018.2 hPa SE 1.6 km/h 3.2 km/h 63% 0 mm
20:00 22.5 °C 15.1 °C 1018.2 hPa SSE 1.6 km/h 1.6 km/h 63% 0 mm
20:04 22.3 °C 15.6 °C 1018.2 hPa SE 1.6 km/h 1.6 km/h 66% 0 mm
20:09 22.1 °C 15.2 °C 1018.2 hPa SE 3.2 km/h 3.2 km/h 65% 0 mm
20:15 22.3 °C 14.9 °C 1018.2 hPa SE 1.6 km/h 4.8 km/h 63% 0 mm
20:20 22.2 °C 15.1 °C 1018.2 hPa Calm   1.6 km/h 64% 0 mm
20:25 22 °C 15.1 °C 1018.2 hPa Calm   1.6 km/h 65% 0 mm
20:30 21.9 °C 15 °C 1018.2 hPa Calm     65% 0 mm
20:35 21.8 °C 15.2 °C 1018.2 hPa Calm     66% 0 mm
20:40 21.7 °C 14.9 °C 1018.2 hPa WSW 1.6 km/h 1.6 km/h 65% 0 mm
20:45 21.9 °C 14.8 °C 1018.2 hPa Calm   1.6 km/h 64% 0 mm
20:50 21.9 °C 15.3 °C 1018.2 hPa Calm     66% 0 mm
20:55 21.8 °C 15.2 °C 1018.2 hPa WSW 1.6 km/h 1.6 km/h 66% 0 mm
21:00 21.8 °C 14.7 °C 1018.2 hPa WSW 1.6 km/h 3.2 km/h 64% 0 mm
21:05 21.9 °C 14.8 °C 1018.2 hPa Calm   1.6 km/h 64% 0 mm
21:10 22 °C 14.6 °C 1018.2 hPa WSW 1.6 km/h 1.6 km/h 63% 0 mm
21:15 22.1 °C 14.7 °C 1018.2 hPa WSW 1.6 km/h 1.6 km/h 63% 0 mm
21:20 22.2 °C 14.8 °C 1018.5 hPa SW 1.6 km/h 1.6 km/h 63% 0 mm
21:25 22.1 °C 14.9 °C 1018.5 hPa Calm   1.6 km/h 64% 0 mm
21:30 22 °C 14.9 °C 1018.5 hPa SW 1.6 km/h 3.2 km/h 64% 0 mm
21:35 22 °C 14.9 °C 1018.5 hPa Calm   1.6 km/h 64% 0 mm
21:41 21.9 °C 14.8 °C 1018.5 hPa Calm     64% 0 mm
21:46 21.8 °C 14.7 °C 1018.5 hPa Calm     64% 0 mm
21:51 21.6 °C 14.7 °C 1018.5 hPa Calm     65% 0 mm
21:56 21.7 °C 14.8 °C 1018.5 hPa ENE 3.2 km/h 3.2 km/h 65% 0 mm
22:01 21.7 °C 14.9 °C 1018.5 hPa ENE 3.2 km/h 3.2 km/h 65% 0 mm
22:06 21.6 °C 14.8 °C 1018.5 hPa ENE 1.6 km/h 3.2 km/h 65% 0 mm
22:11 21.5 °C 14.9 °C 1018.8 hPa Calm   1.6 km/h 66% 0 mm
22:16 21.4 °C 15 °C 1018.8 hPa Calm     67% 0 mm
22:21 21.2 °C 14.6 °C 1018.8 hPa Calm     66% 0 mm
22:26 21.1 °C 14.7 °C 1018.8 hPa Calm     67% 0 mm
22:31 21.2 °C 14.6 °C 1018.8 hPa ENE 1.6 km/h 3.2 km/h 66% 0 mm
22:36 21.5 °C 14.7 °C 1018.8 hPa ENE 1.6 km/h 3.2 km/h 65% 0 mm
22:41 21.6 °C 14.8 °C 1018.8 hPa ENE 1.6 km/h 1.6 km/h 65% 0 mm
22:46 21.6 °C 14.8 °C 1018.8 hPa East 1.6 km/h 3.2 km/h 65% 0 mm
22:51 21.6 °C 15.2 °C 1018.8 hPa East 1.6 km/h 1.6 km/h 67% 0 mm
22:56 21.1 °C 14.9 °C 1019.2 hPa East 1.6 km/h 3.2 km/h 68% 0 mm
23:01 21.1 °C 14.9 °C 1019.2 hPa East 1.6 km/h 1.6 km/h 68% 0 mm
23:06 20.7 °C 15.3 °C 1019.2 hPa East 1.6 km/h 1.6 km/h 71% 0 mm
23:11 20.3 °C 14.9 °C 1019.2 hPa East 1.6 km/h 3.2 km/h 71% 0 mm
23:16 20.2 °C 14.8 °C 1019.2 hPa East 3.2 km/h 3.2 km/h 71% 0 mm
23:21 20.3 °C 14.9 °C 1019.2 hPa East 3.2 km/h 3.2 km/h 71% 0 mm
23:27 20.1 °C 14.9 °C 1019.2 hPa East 1.6 km/h 1.6 km/h 72% 0 mm
23:32 19.8 °C 15 °C 1019.2 hPa East 1.6 km/h 1.6 km/h 74% 0 mm
23:37 19.6 °C 14.8 °C 1019.2 hPa ESE 4.8 km/h 4.8 km/h 74% 0 mm
23:42 19.9 °C 14.9 °C 1019.2 hPa ESE 4.8 km/h 6.4 km/h 73% 0 mm
23:47 19.8 °C 14.8 °C 1019.2 hPa ESE 3.2 km/h 4.8 km/h 73% 0 mm
23:52 19.7 °C 14.7 °C 1019.2 hPa ESE 3.2 km/h 3.2 km/h 73% 0 mm
23:57 19.7 °C 14.9 °C 1019.2 hPa ESE 1.6 km/h 3.2 km/h 74% 0 mm
Compliments of Weather Underground